createdAt,value
2019-04-20T00:00:04.948Z,63.73
2019-04-20T00:01:03.015Z,63.92
2019-04-20T00:02:09.037Z,63.92
2019-04-20T00:03:01.548Z,63.45
2019-04-20T00:04:01.460Z,63.35
2019-04-20T00:05:01.393Z,63.83
2019-04-20T00:06:01.462Z,63.64
2019-04-20T00:07:01.908Z,63.73
2019-04-20T00:08:07.753Z,64.12
2019-04-20T00:09:09.705Z,64.12
2019-04-20T00:10:08.519Z,64.21
2019-04-20T00:11:08.066Z,64.97
2019-04-20T00:12:08.673Z,64.40
2019-04-20T00:13:13.683Z,64.31
2019-04-20T00:14:07.110Z,65.07
2019-04-20T00:15:00.660Z,64.59
2019-04-20T00:16:00.474Z,64.97
2019-04-20T00:17:01.001Z,65.03
2019-04-20T00:18:03.098Z,65.61
2019-04-20T00:19:02.326Z,65.32
2019-04-20T00:20:05.826Z,65.36
2019-04-20T00:21:05.626Z,65.70
2019-04-20T00:22:04.589Z,65.80
2019-04-20T00:22:59.901Z,66.56
2019-04-20T00:24:01.034Z,65.89
2019-04-20T00:25:04.190Z,66.27
2019-04-20T00:26:10.253Z,66.56
2019-04-20T00:27:25.732Z,66.37
2019-04-20T00:28:16.105Z,66.66
2019-04-20T00:29:17.635Z,66.08
2019-04-20T00:30:25.091Z,65.99
2019-04-20T00:32:09.589Z,65.89
2019-04-20T00:33:09.373Z,65.61
2019-04-20T00:34:07.884Z,65.70
2019-04-20T00:34:59.876Z,65.70
2019-04-20T00:35:58.969Z,65.51
2019-04-20T00:37:00.155Z,65.61
2019-04-20T00:37:59.150Z,66.46
2019-04-20T00:39:01.705Z,66.66
2019-04-20T00:39:59.498Z,66.46
2019-04-20T00:41:02.769Z,67.03
2019-04-20T00:42:03.555Z,66.94
2019-04-20T00:42:59.805Z,66.94
2019-04-20T00:44:04.617Z,67.32
2019-04-20T00:45:05.645Z,67.22
2019-04-20T00:46:06.022Z,67.13
2019-04-20T00:47:08.645Z,66.75
2019-04-20T00:48:04.413Z,66.85
2019-04-20T00:49:06.970Z,66.94
2019-04-20T00:50:13.698Z,67.51
2019-04-20T00:51:18.805Z,67.13
2019-04-20T00:52:23.936Z,67.03
2019-04-20T00:53:06.724Z,67.03
2019-04-20T00:53:58.936Z,67.41
2019-04-20T00:54:58.088Z,67.32
2019-04-20T00:55:57.202Z,67.99
2019-04-20T00:57:11.501Z,67.80
2019-04-20T00:58:08.851Z,67.70
2019-04-20T00:59:09.172Z,67.67
2019-04-20T01:00:17.682Z,68.56
2019-04-20T01:01:13.050Z,68.65
2019-04-20T01:02:12.660Z,68.62
2019-04-20T01:03:14.393Z,68.75
2019-04-20T01:04:15.354Z,68.62
2019-04-20T01:05:15.490Z,68.24
2019-04-20T01:06:19.305Z,68.15
2019-04-20T01:07:11.280Z,68.27
2019-04-20T01:07:59.997Z,68.65
2019-04-20T01:08:57.034Z,68.62
2019-04-20T01:09:56.249Z,69.29
2019-04-20T01:10:57.697Z,69.76
2019-04-20T01:11:56.609Z,69.67
2019-04-20T01:13:01.188Z,69.57
2019-04-20T01:14:02.177Z,69.85
2019-04-20T01:15:01.069Z,69.95
2019-04-20T01:16:03.281Z,70.33
2019-04-20T01:17:00.473Z,69.95
2019-04-20T01:17:55.367Z,70.33
2019-04-20T01:18:55.289Z,70.43
2019-04-20T01:19:55.194Z,70.81
2019-04-20T01:21:00.311Z,71.19
2019-04-20T01:22:01.080Z,70.90
2019-04-20T01:23:01.997Z,71.09
2019-04-20T01:23:59.531Z,71.19
2019-04-20T01:24:55.015Z,71.00
2019-04-20T01:26:01.455Z,71.09
2019-04-20T01:26:58.051Z,71.57
2019-04-20T01:28:12.643Z,71.86
2019-04-20T01:29:06.694Z,71.38
2019-04-20T01:30:07.450Z,71.28
2019-04-20T01:31:06.465Z,71.28
2019-04-20T01:32:07.994Z,71.67
2019-04-20T01:33:08.848Z,71.28
2019-04-20T01:34:03.159Z,71.38
2019-04-20T01:35:05.745Z,71.67
2019-04-20T01:36:16.530Z,71.28
2019-04-20T01:37:12.040Z,71.76
2019-04-20T01:38:14.748Z,71.95
2019-04-20T01:39:02.773Z,72.24
2019-04-20T01:39:55.874Z,72.05
2019-04-20T01:40:53.469Z,72.52
2019-04-20T01:41:54.039Z,72.24
2019-04-20T01:42:53.320Z,72.81
2019-04-20T01:43:54.359Z,72.52
2019-04-20T01:44:55.337Z,72.81
2019-04-20T01:46:03.293Z,72.52
2019-04-20T01:46:56.872Z,73.19
2019-04-20T01:47:55.014Z,73.38
2019-04-20T01:48:52.808Z,74.24
2019-04-20T01:49:57.518Z,74.04
2019-04-20T01:51:02.150Z,74.04
2019-04-20T01:52:06.208Z,74.71
2019-04-20T01:53:01.533Z,74.90
2019-04-20T01:54:06.949Z,74.43
2019-04-20T01:55:12.462Z,74.52
2019-04-20T01:56:07.199Z,75.28
2019-04-20T01:57:01.659Z,75.09
2019-04-20T01:58:12.406Z,75.24
2019-04-20T01:59:10.622Z,75.28
2019-04-20T02:00:03.147Z,75.53
2019-04-20T02:00:54.778Z,75.34
2019-04-20T02:01:57.628Z,75.24
2019-04-20T02:02:57.227Z,75.28
2019-04-20T02:03:54.107Z,75.43
2019-04-20T02:04:52.558Z,75.05
2019-04-20T02:05:56.491Z,75.62
2019-04-20T02:06:55.270Z,75.43
2019-04-20T02:07:53.883Z,75.72
2019-04-20T02:08:58.335Z,75.62
2019-04-20T02:09:56.782Z,75.53
2019-04-20T02:10:57.053Z,75.81
2019-04-20T02:11:52.467Z,76.39
2019-04-20T02:12:57.589Z,75.62
2019-04-20T02:13:56.657Z,75.91
2019-04-20T02:14:55.642Z,76.48
2019-04-20T02:15:55.630Z,76.29
2019-04-20T02:16:58.427Z,76.86
2019-04-20T02:18:03.167Z,77.24
2019-04-20T02:19:08.234Z,77.15
2019-04-20T02:20:14.413Z,76.86
2019-04-20T02:21:09.677Z,77.15
2019-04-20T02:22:03.938Z,77.15
2019-04-20T02:23:04.108Z,77.24
2019-04-20T02:23:55.566Z,77.15
2019-04-20T02:24:50.938Z,76.96
2019-04-20T02:25:50.148Z,77.05
2019-04-20T02:26:51.545Z,77.81
2019-04-20T02:27:55.045Z,77.05
2019-04-20T02:29:12.199Z,77.72
2019-04-20T02:30:13.517Z,77.34
2019-04-20T02:31:24.806Z,77.87
2019-04-20T02:32:22.816Z,78.38
2019-04-20T02:33:39.926Z,78.34
2019-04-20T02:34:24.040Z,77.87
2019-04-20T02:35:16.773Z,77.97
2019-04-20T02:37:28.336Z,78.16
2019-04-20T02:38:28.346Z,77.87
2019-04-20T02:39:33.001Z,78.06
2019-04-20T02:40:28.765Z,78.25
2019-04-20T02:41:19.847Z,78.34
2019-04-20T02:42:24.663Z,78.91
2019-04-20T02:43:35.660Z,78.72
2019-04-20T02:44:25.622Z,78.72
2019-04-20T02:45:28.913Z,79.20
2019-04-20T02:46:22.552Z,78.63
2019-04-20T02:47:21.197Z,79.58
2019-04-20T02:48:13.919Z,79.20
2019-04-20T02:49:33.118Z,79.68
2019-04-20T02:51:23.318Z,80.05
2019-04-20T02:52:21.057Z,80.15
2019-04-20T02:55:26.702Z,80.11
2019-04-20T02:56:26.486Z,80.44
2019-04-20T02:57:18.085Z,80.49
2019-04-20T02:58:15.192Z,80.11
2019-04-20T03:00:12.654Z,80.30
2019-04-20T03:01:09.714Z,80.68
2019-04-20T03:02:06.268Z,81.16
2019-04-20T03:03:02.592Z,81.16
2019-04-20T03:03:51.008Z,81.35
2019-04-20T03:04:57.112Z,81.16
2019-04-20T03:06:06.389Z,81.35
2019-04-20T03:07:05.238Z,81.73
2019-04-20T03:08:04.331Z,81.35
2019-04-20T03:09:09.068Z,81.63
2019-04-20T03:10:03.932Z,81.54
2019-04-20T03:11:09.327Z,81.63
2019-04-20T03:12:08.162Z,81.54
2019-04-20T03:13:08.829Z,81.63
2019-04-20T03:14:02.475Z,81.82
2019-04-20T03:14:58.407Z,82.01
2019-04-20T03:16:08.793Z,82.01
2019-04-20T03:17:12.736Z,82.01
2019-04-20T03:18:12.294Z,82.20
2019-04-20T03:19:03.199Z,81.92
2019-04-20T03:20:00.674Z,82.01
2019-04-20T03:21:08.016Z,81.92
2019-04-20T03:22:08.909Z,82.20
2019-04-20T03:23:26.430Z,81.82
2019-04-20T03:24:17.391Z,82.01
2019-04-20T03:25:09.354Z,81.82
2019-04-20T03:26:05.514Z,81.73
2019-04-20T03:26:59.765Z,81.92
2019-04-20T03:28:05.195Z,81.82
2019-04-20T03:29:03.522Z,82.39
2019-04-20T03:30:03.822Z,81.92
2019-04-20T03:33:24.632Z,82.87
2019-04-20T03:34:41.761Z,82.58
2019-04-20T03:36:12.477Z,82.77
2019-04-20T03:37:06.875Z,82.87
2019-04-20T03:38:04.655Z,82.87
2019-04-20T03:39:01.278Z,82.96
2019-04-20T03:39:56.775Z,83.34
2019-04-20T03:40:56.485Z,82.87
2019-04-20T03:41:47.327Z,83.06
2019-04-20T03:42:44.676Z,83.15
2019-04-20T03:43:43.562Z,83.44
2019-04-20T03:44:50.474Z,83.44
2019-04-20T03:45:52.695Z,83.53
2019-04-20T03:46:51.344Z,83.34
2019-04-20T03:47:57.068Z,83.06
2019-04-20T03:49:01.103Z,82.68
2019-04-20T03:50:07.326Z,82.10
2019-04-20T03:51:02.280Z,82.20
2019-04-20T03:52:02.764Z,82.49
2019-04-20T03:53:04.416Z,82.87
2019-04-20T03:53:58.862Z,82.96
2019-04-20T03:54:52.062Z,83.25
2019-04-20T03:55:53.064Z,82.77
2019-04-20T03:57:01.683Z,82.39
2019-04-20T03:58:05.790Z,81.73
2019-04-20T03:58:55.505Z,82.10
2019-04-20T04:00:04.621Z,81.92
2019-04-20T04:00:59.791Z,82.39
2019-04-20T04:02:28.557Z,82.10
2019-04-20T04:03:12.662Z,82.10
2019-04-20T04:04:05.166Z,81.92
2019-04-20T04:04:59.334Z,81.82
2019-04-20T04:05:55.907Z,81.92
2019-04-20T04:06:46.904Z,82.39
2019-04-20T04:07:47.106Z,82.20
2019-04-20T04:08:55.943Z,82.29
2019-04-20T04:10:00.825Z,82.87
2019-04-20T04:11:02.804Z,83.34
2019-04-20T04:11:56.041Z,82.96
2019-04-20T04:12:44.803Z,83.53
2019-04-20T04:13:41.882Z,82.96
2019-04-20T04:14:40.924Z,83.06
2019-04-20T04:15:45.103Z,83.44
2019-04-20T04:16:46.977Z,83.15
2019-04-20T04:17:44.705Z,83.06
2019-04-20T04:18:44.728Z,83.44
2019-04-20T04:19:50.601Z,83.25
2019-04-20T04:20:46.740Z,83.25
2019-04-20T04:21:52.444Z,83.25
2019-04-20T04:22:57.636Z,83.34
2019-04-20T04:23:54.472Z,83.62
2019-04-20T04:24:57.030Z,83.25
2019-04-20T04:25:57.486Z,83.15
2019-04-20T04:26:55.992Z,83.25
2019-04-20T04:27:59.405Z,83.53
2019-04-20T04:28:53.226Z,83.34
2019-04-20T04:29:58.274Z,83.06
2019-04-20T04:30:59.422Z,83.15
2019-04-20T04:32:05.502Z,83.34
2019-04-20T04:33:27.511Z,83.25
2019-04-20T04:34:02.350Z,82.96
2019-04-20T04:34:52.969Z,83.58
2019-04-20T04:35:55.291Z,83.34
2019-04-20T04:36:59.366Z,83.06
2019-04-20T04:37:57.307Z,83.25
2019-04-20T04:39:00.558Z,82.96
2019-04-20T04:40:10.743Z,82.96
2019-04-20T04:41:09.684Z,82.29
2019-04-20T04:42:07.040Z,82.05
2019-04-20T04:43:01.675Z,82.01
2019-04-20T04:43:53.764Z,82.24
2019-04-20T04:44:48.529Z,81.92
2019-04-20T04:45:38.601Z,81.29
2019-04-20T04:46:42.594Z,81.96
2019-04-20T04:47:38.718Z,81.96
2019-04-20T04:48:42.763Z,82.34
2019-04-20T04:49:41.352Z,82.24
2019-04-20T04:50:49.625Z,82.05
2019-04-20T04:51:46.822Z,82.53
2019-04-20T04:52:45.410Z,82.34
2019-04-20T04:53:47.894Z,82.53
2019-04-20T04:54:46.210Z,82.53
2019-04-20T04:55:45.685Z,82.81
2019-04-20T04:56:37.647Z,82.53
2019-04-20T04:57:37.054Z,82.05
2019-04-20T04:58:38.367Z,81.96
2019-04-20T04:59:38.360Z,81.86
2019-04-20T05:00:38.019Z,82.05
2019-04-20T05:01:37.789Z,81.58
2019-04-20T05:02:43.289Z,82.09
2019-04-20T05:03:59.857Z,81.90
2019-04-20T05:04:57.921Z,81.71
2019-04-20T05:05:57.211Z,81.52
2019-04-20T05:06:54.791Z,81.24
2019-04-20T05:07:49.642Z,80.66
2019-04-20T05:08:42.045Z,81.14
2019-04-20T05:09:36.055Z,80.42
2019-04-20T05:10:36.919Z,80.33
2019-04-20T05:11:36.707Z,80.04
2019-04-20T05:12:37.140Z,79.47
2019-04-20T05:13:42.885Z,79.19
2019-04-20T05:14:46.029Z,78.99
2019-04-20T05:15:49.867Z,79.03
2019-04-20T05:16:51.300Z,79.03
2019-04-20T05:17:57.320Z,78.17
2019-04-20T05:18:57.937Z,78.08
2019-04-20T05:19:54.101Z,78.17
2019-04-20T05:20:58.891Z,78.17
2019-04-20T05:22:00.866Z,77.74
2019-04-20T05:22:51.071Z,77.45
2019-04-20T05:23:44.616Z,76.79
2019-04-20T05:24:56.919Z,75.59
2019-04-20T05:25:57.022Z,74.82
2019-04-20T05:26:58.293Z,74.96
2019-04-20T05:27:54.735Z,74.01
2019-04-20T05:28:47.244Z,73.43
2019-04-20T05:29:36.567Z,72.96
2019-04-20T05:30:45.139Z,72.38
2019-04-20T05:31:41.427Z,72.57
2019-04-20T05:32:44.904Z,72.00
2019-04-20T05:33:57.032Z,72.28
2019-04-20T05:35:02.515Z,71.81
2019-04-20T05:35:55.650Z,72.32
2019-04-20T05:36:49.303Z,70.70
2019-04-20T05:38:03.969Z,71.37
2019-04-20T05:39:00.257Z,71.27
2019-04-20T05:39:59.403Z,70.70
2019-04-20T05:40:54.152Z,70.22
2019-04-20T05:41:54.184Z,70.89
2019-04-20T05:42:52.363Z,70.98
2019-04-20T05:43:49.653Z,71.75
2019-04-20T05:44:55.726Z,71.08
2019-04-20T05:45:45.086Z,70.70
2019-04-20T05:46:56.592Z,71.37
2019-04-20T05:47:48.441Z,72.00
2019-04-20T05:49:00.546Z,72.57
2019-04-20T05:49:50.163Z,74.10
2019-04-20T05:50:54.829Z,74.01
2019-04-20T05:52:15.329Z,73.24
2019-04-20T05:52:59.790Z,73.14
2019-04-20T05:53:50.415Z,73.52
2019-04-20T05:54:50.922Z,73.81
2019-04-20T05:55:49.256Z,74.19
2019-04-20T05:56:50.074Z,73.72
2019-04-20T05:57:56.972Z,74.77
2019-04-20T05:58:50.818Z,74.86
2019-04-20T05:59:55.987Z,74.38
2019-04-20T06:00:57.113Z,73.91
2019-04-20T06:01:58.859Z,74.96
2019-04-20T06:02:52.479Z,75.43
2019-04-20T06:03:49.023Z,74.96
2019-04-20T06:05:10.175Z,75.43
2019-04-20T06:05:58.300Z,74.77
2019-04-20T06:06:55.377Z,74.16
2019-04-20T06:07:48.704Z,74.06
2019-04-20T06:08:59.312Z,74.54
2019-04-20T06:09:54.421Z,74.82
2019-04-20T06:10:50.553Z,75.30
2019-04-20T06:12:04.332Z,75.62
2019-04-20T06:12:52.933Z,75.81
2019-04-20T06:13:44.419Z,75.72
2019-04-20T06:14:48.319Z,75.91
2019-04-20T06:15:46.707Z,75.81
2019-04-20T06:16:56.911Z,75.91
2019-04-20T06:17:49.416Z,75.05
2019-04-20T06:18:44.485Z,75.34
2019-04-20T06:19:53.174Z,75.24
2019-04-20T06:21:08.388Z,74.90
2019-04-20T06:22:02.121Z,75.05
2019-04-20T06:22:51.072Z,74.61
2019-04-20T06:24:01.972Z,74.27
2019-04-20T06:24:56.591Z,72.83
2019-04-20T06:26:11.227Z,71.69
2019-04-20T06:26:53.551Z,71.72
2019-04-20T06:27:54.087Z,71.06
2019-04-20T06:28:42.892Z,70.96
2019-04-20T06:29:46.616Z,70.48
2019-04-20T06:30:45.525Z,70.48
2019-04-20T06:31:50.586Z,70.48
2019-04-20T06:32:50.797Z,70.26
2019-04-20T06:34:08.554Z,71.02
2019-04-20T06:34:50.210Z,71.31
2019-04-20T06:36:17.994Z,71.25
2019-04-20T06:36:52.567Z,71.21
2019-04-20T06:37:53.807Z,71.92
2019-04-20T06:38:56.238Z,70.92
2019-04-20T06:42:48.116Z,70.29
2019-04-20T06:43:55.771Z,70.04
2019-04-20T06:45:06.443Z,70.33
2019-04-20T06:45:56.860Z,69.76
2019-04-20T06:46:58.825Z,69.66
2019-04-20T06:47:51.767Z,69.76
2019-04-20T06:48:56.848Z,68.99
2019-04-20T06:49:52.957Z,67.84
2019-04-20T06:50:44.126Z,68.70
2019-04-20T06:51:47.391Z,68.61
2019-04-20T06:52:42.263Z,68.13
2019-04-20T06:53:46.971Z,68.23
2019-04-20T06:54:48.514Z,68.35
2019-04-20T06:55:51.118Z,68.16
2019-04-20T06:56:48.110Z,67.69
2019-04-20T06:58:00.716Z,66.83
2019-04-20T06:58:49.834Z,67.11
2019-04-20T06:59:45.840Z,67.14
2019-04-20T07:00:46.555Z,67.24
2019-04-20T07:01:56.626Z,66.67
2019-04-20T07:03:01.795Z,66.67
2019-04-20T07:05:00.082Z,66.57
2019-04-20T07:05:45.779Z,66.47
2019-04-20T07:07:48.115Z,66.47
2019-04-20T07:08:56.749Z,66.76
2019-04-20T07:10:02.441Z,65.26
2019-04-20T07:10:52.105Z,64.50
2019-04-20T07:11:46.201Z,64.50
2019-04-20T07:12:41.917Z,64.31
2019-04-20T07:13:35.918Z,64.63
2019-04-20T07:14:39.412Z,64.25
2019-04-20T07:15:41.571Z,63.42
2019-04-20T07:16:44.649Z,62.14
2019-04-20T07:17:54.701Z,61.98
2019-04-20T07:18:53.205Z,61.21
2019-04-20T07:19:48.493Z,60.96
2019-04-20T07:20:51.650Z,60.76
2019-04-20T07:21:53.214Z,61.72
2019-04-20T07:22:46.650Z,60.03
2019-04-20T07:23:49.775Z,59.36
2019-04-20T07:24:55.092Z,59.19
2019-04-20T07:25:49.049Z,58.52
2019-04-20T07:26:51.380Z,58.14
2019-04-20T07:27:49.086Z,58.97
2019-04-20T07:28:53.028Z,60.19
2019-04-20T07:29:47.509Z,59.83
2019-04-20T07:30:49.287Z,59.29
2019-04-20T07:31:45.937Z,57.46
2019-04-20T07:32:52.550Z,57.21
2019-04-20T07:33:46.439Z,56.73
2019-04-20T07:34:48.422Z,56.46
2019-04-20T07:35:40.418Z,55.44
2019-04-20T07:36:54.107Z,53.54
2019-04-20T07:38:50.331Z,53.28
2019-04-20T07:39:48.267Z,52.34
2019-04-20T07:40:44.080Z,52.34
2019-04-20T07:41:50.524Z,51.79
2019-04-20T07:42:49.216Z,51.89
2019-04-20T07:43:54.175Z,50.63
2019-04-20T07:44:48.867Z,51.38
2019-04-20T07:45:40.141Z,50.71
2019-04-20T07:46:59.870Z,50.71
2019-04-20T07:47:46.695Z,50.18
2019-04-20T07:48:42.929Z,50.61
2019-04-20T07:49:42.083Z,50.63
2019-04-20T07:50:37.287Z,50.32
2019-04-20T07:51:28.273Z,49.84
2019-04-20T07:52:36.332Z,49.96
2019-04-20T07:53:39.269Z,50.54
2019-04-20T07:54:53.124Z,49.70
2019-04-20T07:55:58.206Z,48.76
2019-04-20T07:56:42.261Z,47.75
2019-04-20T07:57:37.680Z,46.81
2019-04-20T07:58:30.788Z,46.06
2019-04-20T07:59:31.513Z,45.18
2019-04-20T08:00:49.719Z,45.04
2019-04-20T08:01:53.061Z,45.29
2019-04-20T08:02:55.586Z,45.03
2019-04-20T08:03:44.439Z,47.60
2019-04-20T08:04:40.724Z,48.76
2019-04-20T08:05:33.699Z,48.01
2019-04-20T08:06:30.052Z,47.55
2019-04-20T08:07:35.227Z,45.24
2019-04-20T08:08:42.204Z,45.89
2019-04-20T08:09:34.201Z,46.37
2019-04-20T08:10:33.668Z,46.11
2019-04-20T08:11:44.762Z,45.94
2019-04-20T08:12:48.806Z,45.38
2019-04-20T08:13:46.772Z,44.43
2019-04-20T08:14:47.992Z,45.34
2019-04-20T08:15:49.182Z,46.30
2019-04-20T08:16:54.664Z,45.26
2019-04-20T08:17:51.375Z,45.00
2019-04-20T08:18:44.571Z,45.21
2019-04-20T08:19:43.844Z,44.26
2019-04-20T08:20:43.441Z,43.15
2019-04-20T08:21:40.597Z,42.30
2019-04-20T08:22:41.031Z,41.72
2019-04-20T08:23:40.219Z,40.77
2019-04-20T08:24:37.371Z,40.44
2019-04-20T08:25:33.104Z,42.33
2019-04-20T08:26:27.145Z,42.75
2019-04-20T08:27:21.255Z,44.46
2019-04-20T08:28:31.440Z,44.25
2019-04-20T08:29:33.833Z,46.51
2019-04-20T08:30:34.195Z,45.67
2019-04-20T08:31:33.573Z,44.26
2019-04-20T08:32:38.962Z,44.07
2019-04-20T08:33:45.191Z,42.86
2019-04-20T08:34:42.609Z,42.10
2019-04-20T08:35:42.007Z,40.58
2019-04-20T08:36:39.211Z,41.79
2019-04-20T08:37:40.383Z,40.65
2019-04-20T08:39:05.807Z,40.36
2019-04-20T08:40:41.829Z,41.09
2019-04-20T08:41:37.352Z,41.66
2019-04-20T08:42:51.120Z,41.77
2019-04-20T08:43:47.408Z,42.07
2019-04-20T08:44:59.091Z,41.89
2019-04-20T08:45:43.111Z,41.72
2019-04-20T08:46:44.582Z,40.38
2019-04-20T08:47:44.723Z,39.97
2019-04-20T08:48:42.449Z,40.36
2019-04-20T08:49:41.092Z,40.58
2019-04-20T08:50:34.060Z,40.48
2019-04-20T08:51:47.314Z,40.52
2019-04-20T08:52:55.473Z,41.77
2019-04-20T08:53:37.019Z,42.55
2019-04-20T08:54:34.436Z,42.35
2019-04-20T08:55:33.519Z,42.72
2019-04-20T08:56:31.183Z,44.19
2019-04-20T08:57:18.155Z,42.45
2019-04-20T08:58:18.160Z,42.08
2019-04-20T08:59:18.880Z,41.91
2019-04-20T09:00:28.821Z,41.74
2019-04-20T09:01:21.640Z,40.61
2019-04-20T09:02:19.125Z,41.66
2019-04-20T09:03:24.333Z,42.07
2019-04-20T09:04:23.000Z,42.45
2019-04-20T09:05:32.634Z,41.94
2019-04-20T09:06:34.762Z,42.25
2019-04-20T09:07:21.674Z,42.25
2019-04-20T09:08:23.920Z,42.04
2019-04-20T09:09:44.561Z,42.43
2019-04-20T09:10:39.479Z,41.77
2019-04-20T09:11:45.133Z,42.99
2019-04-20T09:12:36.906Z,42.21
2019-04-20T09:13:26.914Z,42.62
2019-04-20T09:14:18.423Z,42.25
2019-04-20T09:15:16.917Z,41.72
2019-04-20T09:16:19.877Z,41.89
2019-04-20T09:17:24.186Z,41.91
2019-04-20T09:18:26.102Z,41.11
2019-04-20T09:19:30.820Z,42.86
2019-04-20T09:20:29.264Z,42.10
2019-04-20T09:21:33.091Z,41.70
2019-04-20T09:22:28.322Z,41.85
2019-04-20T09:23:31.432Z,43.30
2019-04-20T09:24:38.175Z,43.41
2019-04-20T09:25:50.320Z,44.31
2019-04-20T09:26:34.307Z,43.65
2019-04-20T09:27:28.496Z,42.20
2019-04-20T09:28:27.646Z,42.49
2019-04-20T09:29:31.912Z,42.41
2019-04-20T09:30:27.858Z,41.04
2019-04-20T09:31:31.641Z,40.56
2019-04-20T09:32:30.511Z,40.84
2019-04-20T09:33:33.607Z,40.65
2019-04-20T09:34:33.725Z,40.38
2019-04-20T09:35:30.218Z,40.89
2019-04-20T09:36:27.694Z,40.38
2019-04-20T09:37:33.859Z,39.57
2019-04-20T09:38:30.635Z,41.89
2019-04-20T09:39:25.690Z,42.20
2019-04-20T09:40:32.209Z,41.79
2019-04-20T09:41:42.203Z,41.70
2019-04-20T09:42:14.932Z,41.70
2019-04-20T09:43:16.975Z,41.97
2019-04-20T09:44:15.557Z,41.73
2019-04-20T09:45:23.182Z,42.63
2019-04-20T09:46:15.709Z,43.79
2019-04-20T09:47:18.214Z,44.08
2019-04-20T09:48:21.225Z,45.21
2019-04-20T09:49:23.662Z,46.37
2019-04-20T09:50:36.529Z,46.49
2019-04-20T09:51:30.645Z,44.64
2019-04-20T09:52:30.010Z,45.21
2019-04-20T09:53:25.427Z,46.18
2019-04-20T09:54:34.393Z,47.82
2019-04-20T09:55:26.814Z,45.31
2019-04-20T09:56:29.786Z,46.37
2019-04-20T09:57:33.492Z,46.47
2019-04-20T09:58:26.251Z,45.99
2019-04-20T09:59:33.685Z,46.28
2019-04-20T10:00:32.929Z,47.27
2019-04-20T10:01:27.247Z,46.69
2019-04-20T10:02:19.751Z,46.40
2019-04-20T10:03:13.383Z,46.76
2019-04-20T10:04:13.364Z,45.41
2019-04-20T10:05:13.552Z,45.31
2019-04-20T10:06:13.813Z,45.89
2019-04-20T10:07:17.605Z,45.48
2019-04-20T10:08:13.648Z,44.64
2019-04-20T10:09:13.638Z,43.17
2019-04-20T10:10:23.916Z,44.64
2019-04-20T10:11:13.854Z,42.61
2019-04-20T10:12:13.525Z,42.90
2019-04-20T10:13:13.301Z,40.86
2019-04-20T10:14:12.559Z,41.75
2019-04-20T10:15:19.054Z,43.29
2019-04-20T10:16:13.458Z,44.85
2019-04-20T10:17:13.685Z,44.59
2019-04-20T10:18:12.261Z,44.87
2019-04-20T10:19:13.625Z,44.10
2019-04-20T10:20:20.870Z,41.94
2019-04-20T10:21:12.035Z,41.55
2019-04-20T10:22:13.040Z,42.42
2019-04-20T10:23:12.452Z,42.93
2019-04-20T10:24:12.581Z,40.97
2019-04-20T10:25:12.748Z,40.97
2019-04-20T10:26:12.289Z,41.46
2019-04-20T10:27:12.515Z,40.39
2019-04-20T10:28:11.768Z,41.75
2019-04-20T10:29:11.423Z,40.69
2019-04-20T10:30:12.451Z,40.88
2019-04-20T10:31:12.602Z,41.34
2019-04-20T10:32:15.524Z,42.52
2019-04-20T10:33:11.125Z,42.25
2019-04-20T10:34:11.616Z,41.48
2019-04-20T10:35:14.747Z,39.26
2019-04-20T10:36:11.841Z,40.12
2019-04-20T10:37:11.509Z,41.60
2019-04-20T10:38:11.514Z,41.71
2019-04-20T10:39:10.845Z,40.17
2019-04-20T10:40:11.521Z,39.32
2019-04-20T10:41:15.387Z,37.10
2019-04-20T10:42:10.441Z,37.29
2019-04-20T10:43:10.398Z,36.79
2019-04-20T10:44:11.207Z,37.08
2019-04-20T10:45:10.885Z,38.70
2019-04-20T10:46:11.069Z,38.71
2019-04-20T10:47:11.208Z,39.39
2019-04-20T10:48:10.910Z,40.38
2019-04-20T10:49:11.317Z,38.10
2019-04-20T10:50:11.201Z,37.63
2019-04-20T10:51:10.692Z,37.44
2019-04-20T10:52:09.826Z,36.47
2019-04-20T10:53:09.947Z,36.57
2019-04-20T10:54:09.538Z,38.04
2019-04-20T10:55:10.473Z,36.80
2019-04-20T10:56:09.622Z,35.57
2019-04-20T10:57:09.852Z,35.40
2019-04-20T10:58:09.374Z,34.31
2019-04-20T10:59:09.772Z,34.72
2019-04-20T11:00:09.945Z,34.49
2019-04-20T11:01:09.546Z,34.88
2019-04-20T11:02:09.892Z,34.30
2019-04-20T11:03:09.931Z,34.49
2019-04-20T11:04:08.801Z,35.57
2019-04-20T11:05:08.727Z,34.33
2019-04-20T11:06:08.952Z,33.28
2019-04-20T11:07:08.591Z,34.06
2019-04-20T11:08:08.570Z,32.92
2019-04-20T11:09:08.925Z,31.48
2019-04-20T11:10:17.883Z,30.71
2019-04-20T11:11:14.577Z,30.43
2019-04-20T11:12:08.307Z,30.44
2019-04-20T11:13:09.513Z,30.67
2019-04-20T11:14:15.441Z,27.94
2019-04-20T11:15:08.375Z,27.26
2019-04-20T11:16:08.539Z,28.00
2019-04-20T11:17:08.682Z,28.19
2019-04-20T11:18:08.998Z,29.91
2019-04-20T11:19:07.743Z,29.90
2019-04-20T11:20:07.679Z,30.66
2019-04-20T11:21:07.604Z,30.57
2019-04-20T11:22:08.395Z,30.66
2019-04-20T11:23:08.440Z,31.16
2019-04-20T11:24:08.149Z,30.02
2019-04-20T11:25:08.271Z,28.76
2019-04-20T11:26:08.403Z,30.52
2019-04-20T11:27:07.876Z,30.54
2019-04-20T11:28:08.116Z,29.99
2019-04-20T11:29:08.275Z,29.30
2019-04-20T11:30:07.997Z,28.25
2019-04-20T11:31:07.980Z,27.28
2019-04-20T11:32:07.254Z,27.58
2019-04-20T11:33:06.805Z,27.50
2019-04-20T11:34:07.957Z,27.42
2019-04-20T11:35:12.412Z,26.14
2019-04-20T11:36:07.416Z,25.92
2019-04-20T11:37:06.885Z,25.76
2019-04-20T11:38:07.372Z,28.29
2019-04-20T11:39:07.146Z,27.48
2019-04-20T11:40:06.514Z,29.43
2019-04-20T11:41:13.500Z,29.02
2019-04-20T11:42:06.208Z,30.00
2019-04-20T11:43:06.144Z,30.71
2019-04-20T11:44:07.515Z,30.41
2019-04-20T11:45:06.714Z,30.90
2019-04-20T11:46:06.867Z,30.43
2019-04-20T11:47:06.404Z,31.11
2019-04-20T11:48:05.807Z,29.46
2019-04-20T11:49:05.794Z,29.86
2019-04-20T11:50:05.683Z,28.50
2019-04-20T11:51:05.613Z,28.59
2019-04-20T11:52:05.588Z,28.43
2019-04-20T11:53:05.606Z,27.36
2019-04-20T11:54:06.211Z,28.44
2019-04-20T11:55:06.315Z,27.37
2019-04-20T11:56:07.650Z,27.75
2019-04-20T11:57:05.207Z,27.36
2019-04-20T11:58:05.903Z,25.99
2019-04-20T11:59:05.338Z,27.28
2019-04-20T12:00:05.455Z,27.53
2019-04-20T12:01:11.072Z,27.51
2019-04-20T12:02:07.589Z,28.13
2019-04-20T12:03:15.016Z,29.32
2019-04-20T12:04:20.064Z,28.75
2019-04-20T12:05:17.278Z,28.66
2019-04-20T12:06:07.053Z,29.85
2019-04-20T12:07:04.761Z,28.39
2019-04-20T12:08:05.064Z,28.58
2019-04-20T12:09:05.144Z,29.65
2019-04-20T12:10:09.214Z,28.89
2019-04-20T12:11:21.605Z,27.56
2019-04-20T12:12:15.709Z,26.94
2019-04-20T12:13:04.150Z,27.22
2019-04-20T12:14:04.729Z,28.29
2019-04-20T12:15:04.466Z,28.70
2019-04-20T12:16:03.951Z,27.53
2019-04-20T12:17:03.889Z,28.25
2019-04-20T12:18:05.215Z,29.80
2019-04-20T12:19:04.321Z,31.10
2019-04-20T12:20:03.982Z,29.94
2019-04-20T12:21:04.946Z,28.89
2019-04-20T12:22:03.646Z,29.68
2019-04-20T12:23:04.340Z,28.79
2019-04-20T12:24:04.413Z,29.49
2019-04-20T12:25:03.362Z,28.40
2019-04-20T12:26:04.668Z,29.58
2019-04-20T12:27:03.228Z,29.03
2019-04-20T12:28:03.943Z,28.45
2019-04-20T12:29:03.573Z,26.97
2019-04-20T12:30:03.692Z,28.02
2019-04-20T12:31:10.182Z,28.68
2019-04-20T12:32:05.243Z,29.75
2019-04-20T12:33:03.835Z,27.98
2019-04-20T12:34:02.761Z,28.68
2019-04-20T12:35:02.700Z,27.54
2019-04-20T12:36:02.634Z,27.44
2019-04-20T12:37:02.905Z,26.44
2019-04-20T12:38:03.101Z,27.04
2019-04-20T12:39:03.416Z,27.04
2019-04-20T12:40:03.149Z,27.16
2019-04-20T12:41:04.887Z,25.98
2019-04-20T12:42:04.767Z,26.18
2019-04-20T12:43:02.163Z,26.97
2019-04-20T12:44:02.104Z,26.78
2019-04-20T12:45:02.040Z,26.01
2019-04-20T12:46:02.233Z,26.69
2019-04-20T12:47:01.901Z,26.79
2019-04-20T12:48:01.846Z,27.39
2019-04-20T12:49:01.842Z,26.61
2019-04-20T12:50:01.705Z,25.75
2019-04-20T12:51:01.704Z,24.68
2019-04-20T12:52:04.945Z,24.39
2019-04-20T12:53:02.306Z,23.71
2019-04-20T12:54:02.488Z,23.11
2019-04-20T12:55:04.295Z,23.61
2019-04-20T12:56:02.190Z,23.80
2019-04-20T12:57:02.520Z,25.70
2019-04-20T12:58:01.177Z,25.42
2019-04-20T12:59:01.113Z,24.44
2019-04-20T13:00:01.607Z,24.32
2019-04-20T13:01:00.977Z,25.89
2019-04-20T13:02:01.631Z,25.90
2019-04-20T13:03:01.167Z,25.91
2019-04-20T13:04:02.965Z,25.51
2019-04-20T13:05:01.690Z,25.49
2019-04-20T13:06:01.702Z,24.11
2019-04-20T13:07:01.664Z,24.60